createdAt,value
2018-04-14T00:01:18.034Z,8.70
2018-04-14T00:03:45.549Z,8.80
2018-04-14T00:06:13.852Z,8.70
2018-04-14T00:08:41.377Z,8.70
2018-04-14T00:11:10.429Z,8.70
2018-04-14T00:13:37.955Z,8.70
2018-04-14T00:16:06.263Z,8.70
2018-04-14T00:18:33.791Z,8.70
2018-04-14T00:21:02.117Z,8.70
2018-04-14T00:23:29.633Z,8.70
2018-04-14T00:25:57.225Z,8.70
2018-04-14T00:28:24.761Z,8.70
2018-04-14T00:30:52.283Z,8.70
2018-04-14T00:33:19.820Z,8.60
2018-04-14T00:35:47.341Z,8.60
2018-04-14T00:38:14.881Z,8.60
2018-04-14T00:40:43.176Z,8.60
2018-04-14T00:43:10.723Z,8.60
2018-04-14T00:45:39.012Z,8.50
2018-04-14T00:48:06.556Z,8.50
2018-04-14T00:50:34.840Z,8.40
2018-04-14T00:53:15.070Z,8.40
2018-04-14T00:55:42.600Z,8.40
2018-04-14T00:58:10.129Z,8.40
2018-04-14T01:00:37.709Z,8.20
2018-04-14T01:03:05.251Z,8.10
2018-04-14T01:05:32.772Z,8.00
2018-04-14T01:08:00.307Z,7.90
2018-04-14T01:10:27.811Z,7.90
2018-04-14T01:12:56.135Z,7.80
2018-04-14T01:15:23.653Z,7.80
2018-04-14T01:17:51.969Z,7.70
2018-04-14T01:20:19.504Z,7.70
2018-04-14T01:22:47.056Z,7.70
2018-04-14T01:25:15.345Z,7.60
2018-04-14T01:27:42.928Z,7.60
2018-04-14T01:30:10.463Z,7.50
2018-04-14T01:32:37.980Z,7.50
2018-04-14T01:35:05.516Z,7.40
2018-04-14T01:37:33.037Z,7.40
2018-04-14T01:40:01.341Z,7.40
2018-04-14T01:42:28.863Z,7.40
2018-04-14T01:44:57.164Z,7.40
2018-04-14T01:47:24.686Z,7.40
2018-04-14T01:49:52.225Z,7.30
2018-04-14T01:52:19.749Z,7.20
2018-04-14T01:54:47.291Z,7.20
2018-04-14T01:57:15.585Z,7.20
2018-04-14T01:59:43.132Z,7.20
2018-04-14T02:02:10.724Z,7.20
2018-04-14T02:04:38.285Z,7.30
2018-04-14T02:07:05.821Z,7.20
2018-04-14T02:09:33.337Z,7.00
2018-04-14T02:12:00.965Z,6.70
2018-04-14T02:14:28.515Z,6.60
2018-04-14T02:16:56.050Z,6.60
2018-04-14T02:19:24.330Z,6.60
2018-04-14T02:21:52.628Z,6.60
2018-04-14T02:24:20.141Z,6.60
2018-04-14T02:26:47.684Z,6.60
2018-04-14T02:29:15.233Z,6.70
2018-04-14T02:31:42.781Z,6.70
2018-04-14T02:34:10.309Z,6.80
2018-04-14T02:36:38.613Z,6.70
2018-04-14T02:39:06.132Z,6.60
2018-04-14T02:41:33.668Z,6.50
2018-04-14T02:44:01.188Z,6.40
2018-04-14T02:46:28.742Z,6.30
2018-04-14T02:48:56.265Z,6.20
2018-04-14T02:51:23.792Z,6.10
2018-04-14T02:53:51.325Z,6.00
2018-04-14T02:56:18.837Z,6.00
2018-04-14T02:58:46.372Z,6.00
2018-04-14T03:01:13.888Z,6.00
2018-04-14T03:03:42.193Z,6.20
2018-04-14T03:06:09.707Z,6.20
2018-04-14T03:08:37.312Z,6.10
2018-04-14T03:11:04.876Z,6.10
2018-04-14T03:13:33.227Z,6.00
2018-04-14T03:16:01.503Z,6.00
2018-04-14T03:18:29.801Z,6.00
2018-04-14T03:20:57.322Z,6.00
2018-04-14T03:23:24.929Z,6.10
2018-04-14T03:25:52.444Z,6.10
2018-04-14T03:28:19.979Z,6.20
2018-04-14T03:30:47.488Z,6.20
2018-04-14T03:33:15.025Z,6.30
2018-04-14T03:35:42.541Z,6.30
2018-04-14T03:38:10.077Z,6.30
2018-04-14T03:40:37.594Z,6.30
2018-04-14T03:43:05.932Z,6.40
2018-04-14T03:45:33.492Z,6.30
2018-04-14T03:48:01.005Z,6.40
2018-04-14T03:50:29.303Z,6.40
2018-04-14T03:52:56.812Z,6.40
2018-04-14T03:55:24.348Z,6.40
2018-04-14T03:57:51.864Z,6.40
2018-04-14T04:00:20.167Z,6.30
2018-04-14T04:02:47.745Z,6.30
2018-04-14T04:05:15.285Z,6.20
2018-04-14T04:07:42.796Z,6.20
2018-04-14T04:10:10.424Z,6.10
2018-04-14T04:12:37.985Z,6.10
2018-04-14T04:15:05.528Z,6.10
2018-04-14T04:17:33.049Z,6.10
2018-04-14T04:20:12.445Z,6.00
2018-04-14T04:22:51.998Z,6.00
2018-04-14T04:25:24.467Z,5.90
2018-04-14T04:27:52.015Z,5.90
2018-04-14T04:30:19.566Z,5.90
2018-04-14T04:32:47.089Z,6.00
2018-04-14T04:35:14.639Z,6.00
2018-04-14T04:37:42.264Z,6.00
2018-04-14T04:40:09.783Z,5.90
2018-04-14T04:42:38.109Z,5.90
2018-04-14T04:45:05.631Z,5.80
2018-04-14T04:47:34.043Z,5.90
2018-04-14T04:50:01.558Z,5.90
2018-04-14T04:52:29.093Z,5.90
2018-04-14T04:54:56.608Z,5.90
2018-04-14T04:57:24.185Z,5.90
2018-04-14T04:59:51.700Z,5.90
2018-04-14T05:02:20.005Z,6.10
2018-04-14T05:04:47.523Z,6.00
2018-04-14T05:07:15.057Z,6.20
2018-04-14T05:09:42.567Z,6.20
2018-04-14T05:12:10.876Z,6.40
2018-04-14T05:14:38.394Z,6.40
2018-04-14T05:17:06.673Z,6.50
2018-04-14T05:19:35.002Z,6.60
2018-04-14T05:22:02.519Z,6.60
2018-04-14T05:24:30.820Z,6.80
2018-04-14T05:26:58.393Z,6.80
2018-04-14T05:29:25.931Z,6.90
2018-04-14T05:31:53.454Z,7.00
2018-04-14T05:34:20.993Z,7.30
2018-04-14T05:36:48.513Z,7.60
2018-04-14T05:39:16.099Z,7.80
2018-04-14T05:41:43.656Z,8.20
2018-04-14T05:44:11.197Z,8.60
2018-04-14T05:46:38.711Z,9.10
2018-04-14T05:49:06.245Z,9.50
2018-04-14T05:51:33.756Z,9.70
2018-04-14T05:54:02.177Z,10.50
2018-04-14T05:56:29.701Z,10.50
2018-04-14T05:58:58.017Z,11.70
2018-04-14T06:01:25.537Z,11.70
2018-04-14T06:03:53.819Z,13.40
2018-04-14T06:06:22.128Z,14.00
2018-04-14T06:08:49.640Z,14.00
2018-04-14T06:11:17.939Z,15.90
2018-04-14T06:13:46.246Z,16.80
2018-04-14T06:16:13.804Z,16.80
2018-04-14T06:18:41.316Z,17.00
2018-04-14T06:21:08.849Z,17.10
2018-04-14T06:23:36.358Z,17.90
2018-04-14T06:26:04.767Z,18.70
2018-04-14T06:28:32.287Z,18.70
2018-04-14T06:31:00.584Z,17.50
2018-04-14T06:33:28.165Z,17.40
2018-04-14T06:35:55.696Z,17.90
2018-04-14T06:38:23.985Z,18.20
2018-04-14T06:40:51.516Z,18.20
2018-04-14T06:43:19.121Z,18.40
2018-04-14T06:45:46.653Z,18.70
2018-04-14T06:48:15.062Z,18.60
2018-04-14T06:50:42.624Z,18.50
2018-04-14T06:53:10.159Z,18.60
2018-04-14T06:55:38.444Z,19.60
2018-04-14T06:58:06.015Z,19.60
2018-04-14T07:00:33.540Z,20.30
2018-04-14T07:03:01.143Z,20.80
2018-04-14T07:05:28.665Z,21.60
2018-04-14T07:07:56.236Z,22.10
2018-04-14T07:10:23.758Z,22.50
2018-04-14T07:12:51.303Z,22.20
2018-04-14T07:15:18.818Z,21.50
2018-04-14T07:17:47.131Z,20.50
2018-04-14T07:20:14.699Z,20.50
2018-04-14T07:22:42.216Z,19.80
2018-04-14T07:25:10.519Z,19.90
2018-04-14T07:27:38.038Z,19.80
2018-04-14T07:30:05.576Z,19.70
2018-04-14T07:32:33.099Z,19.30
2018-04-14T07:35:00.639Z,18.80
2018-04-14T07:37:28.920Z,18.80
2018-04-14T07:39:57.228Z,19.10
2018-04-14T07:42:24.792Z,19.10
2018-04-14T07:44:52.336Z,19.30
2018-04-14T07:47:19.849Z,19.30
2018-04-14T07:49:47.385Z,18.90
2018-04-14T07:52:14.927Z,18.30
2018-04-14T07:54:42.464Z,17.90
2018-04-14T07:57:10.759Z,17.20
2018-04-14T07:59:38.329Z,17.20
2018-04-14T08:02:05.886Z,16.90
2018-04-14T08:04:33.444Z,16.60
2018-04-14T08:07:00.981Z,16.30
2018-04-14T08:09:29.265Z,16.10
2018-04-14T08:11:56.800Z,16.00
2018-04-14T08:14:24.333Z,16.20
2018-04-14T08:16:51.876Z,16.70
2018-04-14T08:19:19.400Z,17.30
2018-04-14T08:21:47.704Z,18.20
2018-04-14T08:24:15.218Z,18.20
2018-04-14T08:26:43.543Z,18.90
2018-04-14T08:29:11.068Z,18.80
2018-04-14T08:31:39.369Z,19.50
2018-04-14T08:34:06.890Z,19.50
2018-04-14T08:36:34.498Z,19.70
2018-04-14T08:39:02.017Z,19.80
2018-04-14T08:41:30.319Z,19.90
2018-04-14T08:43:57.836Z,19.90
2018-04-14T08:46:25.370Z,20.00
2018-04-14T08:48:52.886Z,20.60
2018-04-14T08:51:20.426Z,21.00
2018-04-14T08:53:47.935Z,21.10
2018-04-14T08:56:15.485Z,20.70
2018-04-14T08:58:43.013Z,20.60
2018-04-14T09:01:11.333Z,20.40
2018-04-14T09:03:38.902Z,20.40
2018-04-14T09:06:06.453Z,20.80
2018-04-14T09:08:34.002Z,21.20
2018-04-14T09:11:01.569Z,21.70
2018-04-14T09:13:29.353Z,21.80
2018-04-14T09:15:56.863Z,21.70
2018-04-14T09:18:25.180Z,22.50
2018-04-14T09:20:52.704Z,22.40
2018-04-14T09:23:21.006Z,23.20
2018-04-14T09:25:48.520Z,23.20
2018-04-14T09:28:16.057Z,23.50
2018-04-14T09:30:43.573Z,23.50
2018-04-14T09:33:11.152Z,23.10
2018-04-14T09:35:38.699Z,23.10
2018-04-14T09:38:06.277Z,23.10
2018-04-14T09:40:33.818Z,23.10
2018-04-14T09:43:01.400Z,23.00
2018-04-14T09:45:28.938Z,23.20
2018-04-14T09:47:56.461Z,23.30
2018-04-14T09:50:23.995Z,23.20
2018-04-14T09:52:51.517Z,23.10
2018-04-14T09:55:19.100Z,23.10
2018-04-14T09:57:46.616Z,23.30
2018-04-14T10:00:19.943Z,23.30
2018-04-14T10:02:47.456Z,23.70
2018-04-14T10:05:14.993Z,24.20
2018-04-14T10:07:42.532Z,24.80
2018-04-14T10:10:10.064Z,24.90
2018-04-14T10:12:38.378Z,23.80
2018-04-14T10:15:06.780Z,23.80
2018-04-14T10:17:34.295Z,23.80
2018-04-14T10:20:01.799Z,24.10
2018-04-14T10:22:29.332Z,24.30
2018-04-14T10:24:56.888Z,24.60
2018-04-14T10:27:24.426Z,24.80
2018-04-14T10:29:52.744Z,24.90
2018-04-14T10:32:20.312Z,24.90
2018-04-14T10:34:47.803Z,24.60
2018-04-14T10:37:16.106Z,24.30
2018-04-14T10:39:43.623Z,24.30
2018-04-14T10:42:11.153Z,23.90
2018-04-14T10:44:38.709Z,23.80
2018-04-14T10:47:06.246Z,24.30
2018-04-14T10:49:33.771Z,23.80
2018-04-14T10:52:01.303Z,23.30
2018-04-14T10:54:28.826Z,23.40
2018-04-14T10:56:57.139Z,23.50
2018-04-14T10:59:24.652Z,23.40
2018-04-14T11:01:52.949Z,23.80
2018-04-14T11:04:20.487Z,23.80
2018-04-14T11:06:48.768Z,23.70
2018-04-14T11:09:17.076Z,23.90
2018-04-14T11:11:44.651Z,23.90
2018-04-14T11:14:12.211Z,23.90
2018-04-14T11:16:39.764Z,23.50
2018-04-14T11:19:07.297Z,23.40
2018-04-14T11:21:35.584Z,22.90
2018-04-14T11:24:03.167Z,22.80
2018-04-14T11:26:30.680Z,22.40
2018-04-14T11:28:58.284Z,22.30
2018-04-14T11:31:25.874Z,22.00
2018-04-14T11:33:53.399Z,21.40
2018-04-14T11:36:20.934Z,21.10
2018-04-14T11:38:49.209Z,20.40
2018-04-14T11:41:17.508Z,20.40
2018-04-14T11:43:45.088Z,20.40
2018-04-14T11:46:12.644Z,20.40
2018-04-14T11:48:40.155Z,20.20
2018-04-14T11:51:07.768Z,20.40
2018-04-14T11:53:35.280Z,21.20
2018-04-14T11:56:03.581Z,20.90
2018-04-14T11:58:31.881Z,20.80
2018-04-14T12:00:59.416Z,20.80
2018-04-14T12:03:27.711Z,21.70
2018-04-14T12:05:55.243Z,21.70
2018-04-14T12:08:23.524Z,22.50
2018-04-14T12:10:51.824Z,22.10
2018-04-14T12:13:19.333Z,22.10
2018-04-14T12:15:46.961Z,21.60
2018-04-14T12:18:14.520Z,21.20
2018-04-14T12:20:42.056Z,21.00
2018-04-14T12:23:10.335Z,21.40
2018-04-14T12:25:38.735Z,21.40
2018-04-14T12:30:40.268Z,21.30
2018-04-14T12:33:08.552Z,20.90
2018-04-14T12:35:36.968Z,20.70
2018-04-14T12:38:04.529Z,20.60
2018-04-14T12:40:32.088Z,20.40
2018-04-14T12:42:59.647Z,20.70
2018-04-14T12:45:27.159Z,20.60
2018-04-14T12:47:54.712Z,20.20
2018-04-14T12:50:22.227Z,19.80
2018-04-14T12:52:49.797Z,19.70
2018-04-14T12:55:17.316Z,19.70
2018-04-14T12:57:44.860Z,19.60
2018-04-14T13:00:12.380Z,19.60
2018-04-14T13:02:39.911Z,19.80
2018-04-14T13:05:07.580Z,20.20
2018-04-14T13:07:35.107Z,20.30
2018-04-14T13:10:02.627Z,20.20
2018-04-14T13:12:30.166Z,20.10
2018-04-14T13:14:57.681Z,20.10
2018-04-14T13:17:25.211Z,20.20
2018-04-14T13:19:52.753Z,20.30
2018-04-14T13:22:20.267Z,20.30
2018-04-14T13:24:47.846Z,20.30
2018-04-14T13:27:15.332Z,20.20
2018-04-14T13:29:42.883Z,20.30
2018-04-14T13:32:10.449Z,20.40
2018-04-14T13:34:38.012Z,20.70
2018-04-14T13:37:05.515Z,20.90
2018-04-14T13:39:33.049Z,20.60
2018-04-14T13:42:00.593Z,20.60
2018-04-14T13:44:28.128Z,20.40
2018-04-14T13:46:55.648Z,20.30
2018-04-14T13:49:23.188Z,20.00
2018-04-14T13:51:50.732Z,19.90
2018-04-14T13:54:18.278Z,20.10
2018-04-14T13:56:45.792Z,20.20
2018-04-14T13:59:13.304Z,20.20
2018-04-14T14:01:40.839Z,20.10
2018-04-14T14:04:09.123Z,20.10
2018-04-14T14:06:37.415Z,20.50
2018-04-14T14:09:05.756Z,20.50
2018-04-14T14:11:33.365Z,20.70
2018-04-14T14:14:00.878Z,20.90
2018-04-14T14:16:28.406Z,21.10
2018-04-14T14:18:55.920Z,21.10
2018-04-14T14:21:24.211Z,21.00
2018-04-14T14:23:51.728Z,21.00
2018-04-14T14:26:20.047Z,20.40
2018-04-14T14:28:47.555Z,20.30
2018-04-14T14:31:15.068Z,20.20
2018-04-14T14:33:42.604Z,20.10
2018-04-14T14:36:10.880Z,20.30
2018-04-14T14:38:39.177Z,20.30
2018-04-14T14:41:06.699Z,20.30
2018-04-14T14:43:34.316Z,20.40
2018-04-14T14:46:01.829Z,20.60
2018-04-14T14:48:29.426Z,20.40
2018-04-14T14:50:57.719Z,20.40
2018-04-14T14:53:25.251Z,20.40
2018-04-14T14:55:53.529Z,20.10
2018-04-14T14:58:21.821Z,20.20
2018-04-14T15:00:49.340Z,20.20
2018-04-14T15:03:16.953Z,20.30
2018-04-14T15:05:44.470Z,20.20
2018-04-14T15:08:12.000Z,20.20
2018-04-14T15:10:39.516Z,20.30
2018-04-14T15:13:07.813Z,20.50
2018-04-14T15:15:35.323Z,20.50
2018-04-14T15:18:02.851Z,20.50
2018-04-14T15:20:30.373Z,20.30
2018-04-14T15:22:57.905Z,20.10
2018-04-14T15:25:25.430Z,20.00
2018-04-14T15:27:53.057Z,19.80
2018-04-14T15:30:20.573Z,19.70
2018-04-14T15:32:48.084Z,19.80
2018-04-14T15:35:15.617Z,20.00
2018-04-14T15:37:43.896Z,20.30
2018-04-14T15:40:12.194Z,20.50
2018-04-14T15:42:39.764Z,20.40
2018-04-14T15:45:07.299Z,20.60
2018-04-14T15:47:35.581Z,20.90
2018-04-14T15:50:03.880Z,21.00
2018-04-14T15:52:32.344Z,21.00
2018-04-14T15:54:59.888Z,21.10
2018-04-14T15:57:28.168Z,20.80
2018-04-14T15:59:56.480Z,20.50
2018-04-14T16:02:23.996Z,20.50
2018-04-14T16:04:51.529Z,20.30
2018-04-14T16:07:19.040Z,20.20
2018-04-14T16:09:46.572Z,20.10
2018-04-14T16:12:14.177Z,20.10
2018-04-14T16:14:41.705Z,20.10
2018-04-14T16:17:10.049Z,19.90
2018-04-14T16:19:37.538Z,19.90
2018-04-14T16:22:05.818Z,19.80
2018-04-14T16:24:34.215Z,19.70
2018-04-14T16:27:01.736Z,19.70
2018-04-14T16:29:29.253Z,19.70
2018-04-14T16:31:56.816Z,19.60
2018-04-14T16:34:24.328Z,19.50
2018-04-14T16:36:51.935Z,19.30
2018-04-14T16:39:19.454Z,19.20
2018-04-14T16:41:47.064Z,19.10
2018-04-14T16:44:14.624Z,18.90
2018-04-14T16:46:42.226Z,18.80
2018-04-14T16:49:09.749Z,18.70
2018-04-14T16:51:37.308Z,18.60
2018-04-14T16:54:04.824Z,18.50
2018-04-14T16:56:33.128Z,18.30
2018-04-14T16:59:00.663Z,18.30
2018-04-14T17:01:28.971Z,18.10
2018-04-14T17:03:56.495Z,18.10
2018-04-14T17:06:24.040Z,18.10
2018-04-14T17:08:52.067Z,18.00
2018-04-14T17:11:19.603Z,17.90
2018-04-14T17:13:47.887Z,17.60
2018-04-14T17:16:16.162Z,17.50
2018-04-14T17:18:44.467Z,17.40
2018-04-14T17:21:11.975Z,17.40
2018-04-14T17:23:39.591Z,17.30
2018-04-14T17:26:07.156Z,17.20
2018-04-14T17:28:34.719Z,17.00
2018-04-14T17:31:02.236Z,16.80
2018-04-14T17:33:30.531Z,16.40
2018-04-14T17:35:58.808Z,16.30
2018-04-14T17:38:26.344Z,16.30
2018-04-14T17:40:53.860Z,16.10
2018-04-14T17:43:21.396Z,16.00
2018-04-14T17:45:48.912Z,15.90
2018-04-14T17:48:16.454Z,15.80
2018-04-14T17:50:43.993Z,15.70
2018-04-14T17:53:11.536Z,15.50
2018-04-14T17:55:39.118Z,15.40
2018-04-14T17:58:06.652Z,15.30
2018-04-14T18:00:34.931Z,15.20
2018-04-14T18:03:03.228Z,15.10
2018-04-14T18:05:30.740Z,15.10
2018-04-14T18:07:58.450Z,14.90
2018-04-14T18:10:26.021Z,14.80
2018-04-14T18:12:53.587Z,14.70
2018-04-14T18:15:21.108Z,14.60
2018-04-14T18:17:49.392Z,14.50
2018-04-14T18:20:16.980Z,14.50
2018-04-14T18:22:44.500Z,14.40
2018-04-14T18:25:12.041Z,14.40
2018-04-14T18:27:39.653Z,14.30
2018-04-14T18:30:07.186Z,14.20
2018-04-14T18:32:35.460Z,14.00
2018-04-14T18:35:03.772Z,14.00
2018-04-14T18:37:31.283Z,14.00
2018-04-14T18:39:58.899Z,13.90
2018-04-14T18:42:26.455Z,13.80
2018-04-14T18:44:54.020Z,13.70
2018-04-14T18:47:21.528Z,13.60
2018-04-14T18:49:49.061Z,13.50
2018-04-14T18:52:16.572Z,13.50
2018-04-14T18:54:44.873Z,13.30
2018-04-14T18:57:12.433Z,13.30
2018-04-14T18:59:39.993Z,13.30
2018-04-14T19:02:07.504Z,13.20
2018-04-14T19:04:35.117Z,13.20
2018-04-14T19:07:02.648Z,13.20
2018-04-14T19:09:30.928Z,13.10
2018-04-14T19:11:59.224Z,12.90
2018-04-14T19:14:26.735Z,12.90
2018-04-14T19:16:54.263Z,12.70
2018-04-14T19:19:21.779Z,12.60
2018-04-14T19:21:50.080Z,12.50
2018-04-14T19:24:17.659Z,12.40
2018-04-14T19:26:45.192Z,12.40
2018-04-14T19:29:12.705Z,12.30
2018-04-14T19:31:40.235Z,12.30
2018-04-14T19:34:07.752Z,12.30
2018-04-14T19:36:36.072Z,12.20
2018-04-14T19:39:03.581Z,12.30
2018-04-14T19:41:31.129Z,12.20
2018-04-14T19:43:58.638Z,12.20
2018-04-14T19:46:26.168Z,12.10
2018-04-14T19:48:54.451Z,11.80
2018-04-14T19:51:22.764Z,11.60
2018-04-14T19:53:50.311Z,11.60
2018-04-14T19:56:17.884Z,11.50
2018-04-14T19:58:45.424Z,11.40
2018-04-14T20:01:13.711Z,11.30
2018-04-14T20:03:41.244Z,11.20
2018-04-14T20:06:08.752Z,11.20
2018-04-14T20:08:36.280Z,11.20
2018-04-14T20:11:04.556Z,11.20
2018-04-14T20:13:32.856Z,11.10
2018-04-14T20:16:00.365Z,11.20
2018-04-14T20:18:27.982Z,11.20
2018-04-14T20:20:55.501Z,11.20
2018-04-14T20:23:23.107Z,11.20
2018-04-14T20:25:50.620Z,11.20
2018-04-14T20:28:18.155Z,11.10
2018-04-14T20:30:45.687Z,11.10
2018-04-14T20:33:13.224Z,11.00
2018-04-14T20:35:41.500Z,10.90
2018-04-14T20:38:09.807Z,10.90
2018-04-14T20:40:37.329Z,10.80
2018-04-14T20:43:05.607Z,10.70
2018-04-14T20:45:33.907Z,10.70
2018-04-14T20:48:01.486Z,10.70
2018-04-14T20:50:29.023Z,10.60
2018-04-14T20:52:56.535Z,10.50
2018-04-14T20:55:24.088Z,10.40
2018-04-14T20:57:51.641Z,10.30
2018-04-14T21:00:19.297Z,10.40
2018-04-14T21:02:46.826Z,10.40
2018-04-14T21:05:15.124Z,10.40
2018-04-14T21:07:42.633Z,10.40
2018-04-14T21:10:10.172Z,10.30
2018-04-14T21:12:37.683Z,10.20
2018-04-14T21:15:05.271Z,10.00
2018-04-14T21:17:32.824Z,9.90
2018-04-14T21:20:00.390Z,9.80
2018-04-14T21:22:27.908Z,9.70
2018-04-14T21:24:55.432Z,9.80
2018-04-14T21:27:22.948Z,9.80
2018-04-14T21:29:50.528Z,9.90
2018-04-14T21:32:18.032Z,9.90
2018-04-14T21:34:45.651Z,9.90
2018-04-14T21:37:13.159Z,9.90
2018-04-14T21:39:40.668Z,9.80
2018-04-14T21:42:08.198Z,9.80
2018-04-14T21:44:36.468Z,9.70
2018-04-14T21:47:04.005Z,9.70
2018-04-14T21:49:32.289Z,9.70
2018-04-14T21:52:00.592Z,9.60
2018-04-14T21:54:28.108Z,9.60
2018-04-14T21:56:55.640Z,9.60
2018-04-14T21:59:23.176Z,9.50
2018-04-14T22:01:50.764Z,9.50
2018-04-14T22:04:18.276Z,9.40
2018-04-14T22:06:45.804Z,9.40
2018-04-14T22:09:13.315Z,9.40
2018-04-14T22:11:41.603Z,9.40
2018-04-14T22:14:09.107Z,9.40
2018-04-14T22:16:36.740Z,9.40
2018-04-14T22:19:04.252Z,9.40
2018-04-14T22:21:31.767Z,9.40
2018-04-14T22:23:59.332Z,9.30
2018-04-14T22:26:26.844Z,9.10
2018-04-14T22:28:54.371Z,9.10
2018-04-14T22:31:21.879Z,9.10
2018-04-14T22:33:50.182Z,9.10
2018-04-14T22:36:17.692Z,9.10
2018-04-14T22:38:45.226Z,9.10
2018-04-14T22:41:12.740Z,9.20
2018-04-14T22:43:40.267Z,9.20
2018-04-14T22:46:07.777Z,9.30
2018-04-14T22:48:35.311Z,9.30
2018-04-14T22:51:03.591Z,9.30
2018-04-14T22:53:31.883Z,9.30
2018-04-14T22:55:59.451Z,9.30
2018-04-14T22:58:26.979Z,9.30
2018-04-14T23:00:55.260Z,9.10
2018-04-14T23:03:23.583Z,9.10
2018-04-14T23:05:51.088Z,9.10
2018-04-14T23:08:19.412Z,9.10
2018-04-14T23:10:46.940Z,9.10
2018-04-14T23:13:15.223Z,9.30
2018-04-14T23:15:43.520Z,9.30
2018-04-14T23:18:11.064Z,9.30
2018-04-14T23:20:38.605Z,9.30
2018-04-14T23:23:06.906Z,9.30
2018-04-14T23:25:34.435Z,9.30
2018-04-14T23:28:01.969Z,9.30
2018-04-14T23:30:29.516Z,9.30
2018-04-14T23:32:57.036Z,9.20
2018-04-14T23:35:25.336Z,9.20
2018-04-14T23:37:52.858Z,9.20
2018-04-14T23:40:20.400Z,9.20
2018-04-14T23:42:47.926Z,9.20
2018-04-14T23:45:15.476Z,9.30
2018-04-14T23:47:43.049Z,9.30
2018-04-14T23:50:10.604Z,9.30
2018-04-14T23:52:38.140Z,9.30
2018-04-14T23:55:06.444Z,9.20
2018-04-14T23:57:33.979Z,9.20
